Time;durP1;ratioP1;P1;durP2;ratioP2;P2;SDS_P1;SDS_P2;PMS_P1;PMS_P2;Temp;Humidity;BMP_temperature;BMP_pressure;BME280_temperature;BME280_humidity;BME280_pressure;Samples;Min_cycle;Max_cycle;Signal;HPM_P1;HPM_P2
2022/11/29 00:01:37;;;;;;;47.33;30.43;;;4.00;99.90;;;;;;5075254;28;20196;-73
2022/11/29 00:04:04;;;;;;;41.53;27.77;;;4.00;99.90;;;;;;5075021;28;20650;-73
2022/11/29 00:06:33;;;;;;;46.00;28.83;;;4.00;99.90;;;;;;5074809;28;20585;-73
2022/11/29 00:09:02;;;;;;;44.23;28.60;;;4.00;99.90;;;;;;5075269;28;20274;-73
2022/11/29 00:14:16;;;;;;;41.73;27.90;;;4.00;99.90;;;;;;5057704;28;20713;-73
2022/11/29 00:16:43;;;;;;;38.93;26.57;;;4.00;99.90;;;;;;5074764;28;20202;-73
2022/11/29 00:19:11;;;;;;;38.93;27.83;;;4.00;99.90;;;;;;5075016;28;20295;-73
2022/11/29 00:21:38;;;;;;;40.50;27.37;;;4.00;99.90;;;;;;5074966;28;20200;-73
2022/11/29 00:24:05;;;;;;;43.93;28.97;;;4.00;99.90;;;;;;5074606;28;20204;-73
2022/11/29 00:26:32;;;;;;;41.07;28.07;;;3.90;99.90;;;;;;5074730;28;20260;-73
2022/11/29 00:28:58;;;;;;;41.43;27.00;;;4.00;99.90;;;;;;5074773;28;20257;-73
2022/11/29 00:31:29;;;;;;;39.77;27.30;;;4.00;99.90;;;;;;5074419;28;20246;-73
2022/11/29 00:33:56;;;;;;;40.20;27.87;;;4.00;99.90;;;;;;5074731;28;20548;-73
2022/11/29 00:36:23;;;;;;;41.37;27.23;;;4.00;99.90;;;;;;5074433;28;20224;-73
2022/11/29 00:38:50;;;;;;;38.13;26.03;;;4.00;99.90;;;;;;5074416;28;20203;-73
2022/11/29 00:41:17;;;;;;;41.80;28.50;;;4.00;99.90;;;;;;5074426;28;20252;-73
2022/11/29 00:43:44;;;;;;;43.50;28.43;;;4.00;99.90;;;;;;5074272;28;20198;-72
2022/11/29 00:46:11;;;;;;;38.33;26.70;;;4.00;99.90;;;;;;5074233;28;20260;-73
2022/11/29 00:48:39;;;;;;;41.40;28.27;;;4.00;99.90;;;;;;5074219;28;20203;-73
2022/11/29 00:51:06;;;;;;;40.37;27.40;;;4.00;99.90;;;;;;5074347;28;20207;-73
2022/11/29 00:53:34;;;;;;;40.03;27.57;;;4.00;99.90;;;;;;5074170;28;20197;-73
2022/11/29 00:56:01;;;;;;;39.43;27.23;;;3.90;99.90;;;;;;5074052;28;20223;-73
2022/11/29 00:58:28;;;;;;;40.77;27.70;;;4.00;99.90;;;;;;5074245;28;20203;-73
2022/11/29 01:00:55;;;;;;;39.97;26.30;;;4.00;99.90;;;;;;5073330;28;20193;-73
2022/11/29 01:03:22;;;;;;;41.07;28.27;;;4.00;99.90;;;;;;5074360;28;20200;-73
2022/11/29 01:05:51;;;;;;;42.17;27.67;;;4.00;99.90;;;;;;5074137;28;20203;-73
2022/11/29 01:08:18;;;;;;;39.37;27.97;;;4.00;99.90;;;;;;5075158;28;20230;-73
2022/11/29 01:10:44;;;;;;;41.03;27.60;;;4.00;99.90;;;;;;5076367;28;20225;-73
2022/11/29 01:13:11;;;;;;;38.57;26.87;;;4.00;99.90;;;;;;5076106;28;20202;-73
2022/11/29 01:15:38;;;;;;;44.97;27.70;;;4.00;99.90;;;;;;5076271;28;20272;-73
2022/11/29 01:18:05;;;;;;;39.00;26.47;;;4.00;99.90;;;;;;5075321;28;20654;-73
2022/11/29 01:20:31;;;;;;;44.53;27.97;;;4.00;99.90;;;;;;5075687;28;20200;-73
2022/11/29 01:22:59;;;;;;;42.87;28.83;;;4.00;99.90;;;;;;5074338;28;20203;-73
2022/11/29 01:25:26;;;;;;;40.10;27.57;;;3.90;99.90;;;;;;5073618;28;20205;-73
2022/11/29 01:27:53;;;;;;;40.33;27.47;;;4.00;99.90;;;;;;5073829;28;20664;-73
2022/11/29 01:30:20;;;;;;;38.43;27.40;;;3.90;99.90;;;;;;5073871;28;20200;-72
2022/11/29 01:32:47;;;;;;;38.93;26.83;;;3.90;99.90;;;;;;5073854;28;20568;-72
2022/11/29 01:35:13;;;;;;;37.43;26.47;;;3.90;99.90;;;;;;5073348;28;20687;-72
2022/11/29 01:37:40;;;;;;;43.60;27.27;;;3.90;99.90;;;;;;5073511;28;20246;-72
2022/11/29 01:40:09;;;;;;;35.77;26.13;;;3.90;99.90;;;;;;5074131;28;20212;-72
2022/11/29 01:42:36;;;;;;;40.90;26.67;;;3.80;99.90;;;;;;5074688;28;20266;-72
2022/11/29 01:45:07;;;;;;;40.20;27.60;;;3.90;99.90;;;;;;5074479;28;20199;-73
2022/11/29 01:47:38;;;;;;;38.30;26.53;;;3.90;99.90;;;;;;5073624;28;20288;-72
2022/11/29 01:50:08;;;;;;;39.00;26.63;;;3.90;99.90;;;;;;5073810;28;20204;-72
2022/11/29 01:52:35;;;;;;;39.90;27.23;;;3.90;99.90;;;;;;5073190;28;20242;-72
2022/11/29 01:55:05;;;;;;;39.73;26.10;;;3.90;99.90;;;;;;5073206;28;20294;-72
2022/11/29 01:57:35;;;;;;;42.40;27.90;;;3.90;99.90;;;;;;5073237;28;20242;-72
2022/11/29 02:00:07;;;;;;;37.47;25.87;;;3.90;99.90;;;;;;5073170;28;20251;-73
2022/11/29 02:02:36;;;;;;;35.20;25.03;;;3.90;99.90;;;;;;5073389;28;20219;-73
2022/11/29 02:05:04;;;;;;;41.33;26.90;;;3.90;99.90;;;;;;5073247;28;20197;-72
2022/11/29 02:07:31;;;;;;;38.27;26.60;;;3.90;99.90;;;;;;5072969;28;20694;-72
2022/11/29 02:09:57;;;;;;;38.93;26.83;;;3.90;99.90;;;;;;5073139;28;20256;-72
2022/11/29 02:12:34;;;;;;;38.80;26.57;;;3.90;99.90;;;;;;5073115;28;20204;-72
2022/11/29 02:15:12;;;;;;;40.30;28.03;;;3.90;99.90;;;;;;5072745;28;20210;-72
2022/11/29 02:17:50;;;;;;;37.23;26.83;;;3.90;99.90;;;;;;5072774;28;20197;-72
2022/11/29 02:20:40;;;;;;;35.10;25.33;;;3.90;99.90;;;;;;5072938;28;20345;-73
2022/11/29 02:23:27;;;;;;;37.43;25.50;;;3.90;99.90;;;;;;5066395;28;20254;-72
2022/11/29 02:26:03;;;;;;;37.40;25.57;;;3.90;99.90;;;;;;5072731;28;20196;-72
2022/11/29 02:28:57;;;;;;;38.20;26.97;;;4.00;99.90;;;;;;5072900;28;20197;-72
2022/11/29 02:31:50;;;;;;;36.53;25.60;;;3.90;99.90;;;;;;5072819;28;20256;-72
2022/11/29 02:34:49;;;;;;;33.70;23.83;;;4.00;99.90;;;;;;5072923;28;20208;-72
2022/11/29 02:37:40;;;;;;;39.23;26.50;;;3.90;99.90;;;;;;5076388;28;20692;-72
2022/11/29 02:40:34;;;;;;;34.97;24.63;;;4.00;99.90;;;;;;5076690;28;20551;-73
2022/11/29 02:43:15;;;;;;;39.47;27.27;;;3.90;99.90;;;;;;5076798;28;20256;-72
2022/11/29 02:45:56;;;;;;;38.33;26.43;;;3.90;99.90;;;;;;5076835;28;20231;-72
2022/11/29 02:48:50;;;;;;;36.03;24.70;;;4.00;99.90;;;;;;5076407;28;20609;-73
2022/11/29 02:51:25;;;;;;;36.53;25.73;;;4.00;99.90;;;;;;5076316;28;20260;-72
2022/11/29 02:53:58;;;;;;;33.87;25.23;;;4.00;99.90;;;;;;5076510;28;20196;-72
2022/11/29 02:56:31;;;;;;;35.77;25.93;;;4.00;99.90;;;;;;5076300;28;20278;-72
2022/11/29 02:59:04;;;;;;;35.80;25.03;;;4.00;99.90;;;;;;5076233;28;20201;-72
2022/11/29 03:01:36;;;;;;;34.93;24.63;;;4.00;99.90;;;;;;5076172;28;20197;-73
2022/11/29 03:04:13;;;;;;;36.03;24.87;;;4.00;99.90;;;;;;5076300;28;20560;-72
2022/11/29 03:06:49;;;;;;;35.33;25.40;;;4.00;99.90;;;;;;5075732;28;20678;-72
2022/11/29 03:09:25;;;;;;;34.87;24.70;;;4.00;99.90;;;;;;5076272;28;20203;-72
2022/11/29 03:12:01;;;;;;;35.40;25.40;;;4.00;99.90;;;;;;5075877;28;20252;-72
2022/11/29 03:14:36;;;;;;;35.40;25.07;;;4.00;99.90;;;;;;5076242;28;20265;-72
2022/11/29 03:17:12;;;;;;;36.33;25.67;;;4.00;99.90;;;;;;5076045;28;20231;-72
2022/11/29 03:20:00;;;;;;;36.50;24.93;;;4.00;99.90;;;;;;5075973;28;20215;-72
2022/11/29 03:22:41;;;;;;;31.73;23.80;;;4.00;99.90;;;;;;5076052;28;20205;-72
2022/11/29 03:25:12;;;;;;;34.33;24.90;;;4.00;99.90;;;;;;5075892;28;20211;-72
2022/11/29 03:27:43;;;;;;;37.70;24.83;;;4.00;99.90;;;;;;5075767;28;20199;-72
2022/11/29 03:30:13;;;;;;;34.90;25.13;;;4.00;99.90;;;;;;5075788;28;20201;-72
2022/11/29 03:32:48;;;;;;;35.80;26.20;;;4.00;99.90;;;;;;5075493;28;20603;-72
2022/11/29 03:35:20;;;;;;;36.07;24.07;;;4.00;99.90;;;;;;5075658;28;20203;-72
2022/11/29 03:37:57;;;;;;;34.93;25.00;;;4.00;99.90;;;;;;5075665;28;20207;-72
2022/11/29 03:40:29;;;;;;;32.97;25.17;;;4.00;99.90;;;;;;5075418;28;20257;-73
2022/11/29 03:43:02;;;;;;;36.50;24.77;;;4.00;99.90;;;;;;5075416;28;20211;-72
2022/11/29 03:45:32;;;;;;;34.97;24.53;;;4.00;99.90;;;;;;5075476;28;20207;-73
2022/11/29 03:48:05;;;;;;;34.77;25.27;;;4.00;99.90;;;;;;5074702;28;20246;-72
2022/11/29 03:50:36;;;;;;;36.00;24.63;;;4.00;99.90;;;;;;5075414;28;20197;-72
2022/11/29 03:53:14;;;;;;;36.57;25.40;;;4.00;99.90;;;;;;5075301;28;20204;-73
2022/11/29 03:55:52;;;;;;;39.57;26.07;;;4.00;99.90;;;;;;5074978;28;20683;-72
2022/11/29 03:58:34;;;;;;;34.33;24.67;;;4.00;99.90;;;;;;5075254;28;20195;-73
2022/11/29 04:01:27;;;;;;;33.03;23.93;;;4.10;99.90;;;;;;5075006;28;20648;-73
2022/11/29 04:04:35;;;;;;;37.80;25.00;;;4.10;99.90;;;;;;5074823;28;20537;-73
2022/11/29 04:07:16;;;;;;;35.90;24.50;;;4.10;99.90;;;;;;5075000;28;20239;-72
2022/11/29 04:09:59;;;;;;;33.83;23.00;;;4.10;99.90;;;;;;5075097;28;20208;-72
2022/11/29 04:12:58;;;;;;;37.57;25.33;;;4.10;99.90;;;;;;5074728;28;20234;-72
2022/11/29 04:15:58;;;;;;;38.17;26.13;;;4.10;99.90;;;;;;5074705;28;20204;-72
2022/11/29 04:18:49;;;;;;;34.83;25.27;;;4.10;99.90;;;;;;5074692;28;20208;-72
2022/11/29 04:21:38;;;;;;;35.40;24.90;;;4.00;99.90;;;;;;5074807;28;20624;-72
2022/11/29 04:24:34;;;;;;;38.60;26.77;;;4.10;99.90;;;;;;5073839;28;20199;-72
2022/11/29 04:27:35;;;;;;;35.13;24.27;;;4.00;99.90;;;;;;5074719;28;20230;-72
2022/11/29 04:30:09;;;;;;;37.93;24.73;;;4.10;99.90;;;;;;5074713;28;20201;-72
2022/11/29 04:33:00;;;;;;;38.67;25.13;;;4.00;99.90;;;;;;5074549;28;20252;-71
2022/11/29 04:35:41;;;;;;;37.67;25.63;;;4.00;99.90;;;;;;5074626;28;20191;-71
2022/11/29 04:38:46;;;;;;;36.20;26.03;;;4.00;99.90;;;;;;5074491;28;20203;-71
2022/11/29 04:41:30;;;;;;;38.23;25.83;;;4.00;99.90;;;;;;5074363;28;20246;-72
2022/11/29 04:44:21;;;;;;;39.17;26.23;;;4.00;99.90;;;;;;5074163;28;20533;-72
2022/11/29 04:46:59;;;;;;;37.90;25.40;;;4.00;99.90;;;;;;5072704;28;20207;-71
2022/11/29 04:49:45;;;;;;;36.37;25.00;;;4.00;99.90;;;;;;5074131;28;20254;-72
2022/11/29 04:52:26;;;;;;;40.37;26.03;;;4.00;99.90;;;;;;5074292;28;20201;-71
2022/11/29 04:55:01;;;;;;;41.17;26.27;;;4.00;99.90;;;;;;5074127;28;20612;-71
2022/11/29 04:57:35;;;;;;;39.07;26.23;;;4.00;99.90;;;;;;5073896;28;20236;-71
2022/11/29 05:00:08;;;;;;;36.23;24.80;;;4.00;99.90;;;;;;5072978;28;20208;-71
2022/11/29 05:02:40;;;;;;;35.30;24.90;;;4.00;99.90;;;;;;5074178;28;20201;-71
2022/11/29 05:05:21;;;;;;;39.30;26.43;;;4.00;99.90;;;;;;5074217;28;20211;-72
2022/11/29 05:07:58;;;;;;;37.53;26.93;;;4.00;99.90;;;;;;5073726;28;20725;-72
2022/11/29 05:10:31;;;;;;;38.20;25.60;;;4.00;99.90;;;;;;5073722;28;20208;-72
2022/11/29 05:13:04;;;;;;;40.60;25.97;;;4.10;99.90;;;;;;5073578;28;20714;-71
2022/11/29 05:15:48;;;;;;;37.67;26.57;;;4.10;99.90;;;;;;5073479;28;20659;-71
2022/11/29 05:18:26;;;;;;;40.37;25.87;;;4.10;99.90;;;;;;5073564;28;20204;-72
2022/11/29 05:21:00;;;;;;;38.43;26.70;;;4.10;99.90;;;;;;5073268;28;20251;-72
2022/11/29 05:23:39;;;;;;;35.93;25.87;;;4.10;99.90;;;;;;5073612;28;20206;-72
2022/11/29 05:26:12;;;;;;;41.07;27.63;;;4.10;99.90;;;;;;5073277;28;20716;-72
2022/11/29 05:28:48;;;;;;;41.37;26.10;;;4.10;99.90;;;;;;5073402;28;20233;-72
2022/11/29 05:31:42;;;;;;;40.37;27.10;;;4.10;99.90;;;;;;5073452;28;20201;-72
2022/11/29 05:34:28;;;;;;;39.80;25.97;;;4.10;99.90;;;;;;5071268;28;20212;-71
2022/11/29 05:37:02;;;;;;;36.60;26.80;;;4.10;99.90;;;;;;5065742;28;20224;-72
2022/11/29 05:39:41;;;;;;;39.87;27.73;;;4.10;99.90;;;;;;5073066;28;20237;-71
2022/11/29 05:42:29;;;;;;;41.57;27.73;;;4.10;99.90;;;;;;5073159;28;20667;-71
2022/11/29 05:45:00;;;;;;;40.17;26.13;;;4.10;99.90;;;;;;5073291;28;20258;-71
2022/11/29 05:47:36;;;;;;;41.77;26.63;;;4.10;99.90;;;;;;5073097;28;20200;-71
2022/11/29 05:50:10;;;;;;;40.47;28.00;;;4.10;99.90;;;;;;5072885;28;20294;-71
2022/11/29 05:52:49;;;;;;;44.37;26.93;;;4.10;99.90;;;;;;5073195;28;20197;-71
2022/11/29 05:55:31;;;;;;;39.07;27.60;;;4.10;99.90;;;;;;5073128;28;20203;-72
2022/11/29 05:58:02;;;;;;;45.70;28.57;;;4.10;99.90;;;;;;5072878;28;20238;-72
2022/11/29 06:00:37;;;;;;;45.30;28.40;;;4.10;99.90;;;;;;5072674;28;20208;-72
2022/11/29 06:03:14;;;;;;;50.17;28.83;;;4.10;99.90;;;;;;5072818;28;20196;-72
2022/11/29 06:05:48;;;;;;;48.17;29.07;;;4.10;99.90;;;;;;5072858;28;20199;-71
2022/11/29 06:08:21;;;;;;;46.17;29.00;;;4.10;99.90;;;;;;5072612;28;20233;-71
2022/11/29 06:10:59;;;;;;;53.67;29.93;;;4.10;99.90;;;;;;5072441;28;20206;-71
2022/11/29 06:13:42;;;;;;;46.27;30.27;;;4.10;99.90;;;;;;5072998;28;20203;-72
2022/11/29 06:16:39;;;;;;;46.37;28.17;;;4.20;99.90;;;;;;5072852;28;20207;-72
2022/11/29 06:19:37;;;;;;;43.53;28.43;;;4.10;99.90;;;;;;5072924;28;20744;-71
2022/11/29 06:22:19;;;;;;;50.10;27.97;;;4.20;99.90;;;;;;5073140;28;20200;-72
2022/11/29 06:25:00;;;;;;;45.03;29.87;;;4.20;99.90;;;;;;5073057;28;20648;-72
2022/11/29 06:27:41;;;;;;;47.63;30.40;;;4.20;99.90;;;;;;5072726;28;20276;-72
2022/11/29 06:30:11;;;;;;;47.23;29.67;;;4.20;99.90;;;;;;5072926;28;20211;-72
2022/11/29 06:32:49;;;;;;;50.93;30.13;;;4.20;99.90;;;;;;5072751;28;20204;-71
2022/11/29 06:35:33;;;;;;;56.30;32.70;;;4.10;99.90;;;;;;5072643;28;20197;-71
2022/11/29 06:38:06;;;;;;;58.13;31.83;;;4.20;99.90;;;;;;5072585;28;20217;-71
2022/11/29 06:40:33;;;;;;;59.07;34.00;;;4.20;99.90;;;;;;5072642;28;20204;-73
2022/11/29 06:43:00;;;;;;;54.40;32.63;;;4.20;99.90;;;;;;5072663;28;20560;-72
2022/11/29 06:45:28;;;;;;;62.33;34.67;;;4.20;99.90;;;;;;5072696;28;20259;-73
2022/11/29 06:48:01;;;;;;;55.73;34.23;;;4.20;99.90;;;;;;5072405;28;20211;-72
2022/11/29 06:50:36;;;;;;;71.83;37.77;;;4.20;99.90;;;;;;5072270;28;20261;-72
2022/11/29 06:53:10;;;;;;;63.93;34.23;;;4.20;99.90;;;;;;5072454;28;20238;-71
2022/11/29 06:55:49;;;;;;;69.13;32.50;;;4.20;99.90;;;;;;5072526;28;20201;-73
2022/11/29 06:58:41;;;;;;;66.77;33.40;;;4.20;99.90;;;;;;5072276;28;20247;-73
2022/11/29 07:01:18;;;;;;;70.07;31.60;;;4.20;99.90;;;;;;5072182;28;20209;-72
2022/11/29 07:04:03;;;;;;;61.47;29.87;;;4.20;99.90;;;;;;5072255;28;20274;-73
2022/11/29 07:06:34;;;;;;;62.57;30.10;;;4.20;99.90;;;;;;5072037;28;20273;-72
2022/11/29 07:09:08;;;;;;;56.67;30.07;;;4.20;99.90;;;;;;5072166;28;20247;-72
2022/11/29 07:11:35;;;;;;;61.20;32.13;;;4.20;99.90;;;;;;5072393;28;20186;-72
2022/11/29 07:14:03;;;;;;;70.70;30.47;;;4.30;99.90;;;;;;5072307;28;20203;-73
2022/11/29 07:16:35;;;;;;;61.17;31.40;;;4.20;99.90;;;;;;5072212;28;20207;-72
2022/11/29 07:19:14;;;;;;;64.30;30.60;;;4.30;99.90;;;;;;5071953;28;20227;-72
2022/11/29 07:21:52;;;;;;;64.00;30.33;;;4.30;99.90;;;;;;5072413;28;20643;-72
2022/11/29 07:24:32;;;;;;;60.57;30.50;;;4.30;99.90;;;;;;5075883;28;20200;-73
2022/11/29 07:27:07;;;;;;;56.10;29.53;;;4.30;99.90;;;;;;5075905;28;20539;-72
2022/11/29 07:29:40;;;;;;;66.37;32.80;;;4.40;99.90;;;;;;5075530;28;20200;-72
2022/11/29 07:32:16;;;;;;;59.97;29.90;;;4.40;99.90;;;;;;5075528;28;20204;-73
2022/11/29 07:34:54;;;;;;;59.90;29.73;;;4.40;99.90;;;;;;5075660;28;20211;-73
2022/11/29 07:37:32;;;;;;;56.43;30.43;;;4.40;99.90;;;;;;5075441;28;20225;-73
2022/11/29 07:40:05;;;;;;;57.93;30.13;;;4.40;99.90;;;;;;5075455;28;20257;-73
2022/11/29 07:42:40;;;;;;;58.87;31.07;;;4.50;99.90;;;;;;5075290;28;20199;-72
2022/11/29 07:45:17;;;;;;;63.73;32.67;;;4.50;99.90;;;;;;5075311;28;20656;-73
2022/11/29 07:47:45;;;;;;;59.90;30.83;;;4.50;99.90;;;;;;5075378;28;20238;-72
2022/11/29 07:50:12;;;;;;;61.57;31.07;;;4.50;99.90;;;;;;5075214;28;20226;-73
2022/11/29 07:52:40;;;;;;;56.00;31.17;;;4.50;99.90;;;;;;5075156;28;20246;-72
2022/11/29 07:55:11;;;;;;;59.77;29.27;;;4.60;99.90;;;;;;5074916;28;20254;-73
2022/11/29 07:57:38;;;;;;;65.53;32.53;;;4.60;99.90;;;;;;5075146;28;20251;-72
2022/11/29 08:00:06;;;;;;;69.00;32.10;;;4.60;99.90;;;;;;5075118;28;20259;-73
2022/11/29 08:02:33;;;;;;;62.83;31.53;;;4.60;99.90;;;;;;5074931;28;20284;-72
2022/11/29 08:05:00;;;;;;;51.40;29.17;;;4.70;99.90;;;;;;5074928;28;20674;-72
2022/11/29 08:07:27;;;;;;;55.77;29.77;;;4.70;99.90;;;;;;5074693;28;20565;-72
2022/11/29 08:09:55;;;;;;;57.90;31.33;;;4.80;99.90;;;;;;5074653;28;20201;-72
2022/11/29 08:12:22;;;;;;;48.13;29.37;;;4.80;99.90;;;;;;5074651;28;20200;-73
2022/11/29 08:14:49;;;;;;;50.70;28.73;;;4.80;99.90;;;;;;5074864;28;20193;-72
2022/11/29 08:17:15;;;;;;;54.63;29.70;;;4.80;99.90;;;;;;5074684;28;20262;-72
2022/11/29 08:19:42;;;;;;;52.13;28.67;;;4.90;99.90;;;;;;5074597;28;20204;-72
2022/11/29 08:22:08;;;;;;;59.77;30.07;;;4.90;99.90;;;;;;5074571;28;20204;-73
2022/11/29 08:24:35;;;;;;;55.63;29.53;;;4.90;99.90;;;;;;5075082;28;20201;-73
2022/11/29 08:27:03;;;;;;;44.83;26.90;;;4.90;99.90;;;;;;5074681;28;20251;-73
2022/11/29 08:29:30;;;;;;;48.10;27.80;;;4.90;99.90;;;;;;5074451;28;20678;-73
2022/11/29 08:31:57;;;;;;;58.73;29.77;;;5.00;99.90;;;;;;5074428;28;20193;-73
2022/11/29 08:34:24;;;;;;;50.90;27.80;;;5.00;99.90;;;;;;5074221;28;20254;-73
2022/11/29 08:36:51;;;;;;;53.13;29.67;;;5.00;99.90;;;;;;5074121;28;20205;-72
2022/11/29 08:39:18;;;;;;;53.47;29.10;;;5.10;99.90;;;;;;5074465;28;20259;-72
2022/11/29 08:41:45;;;;;;;51.80;27.77;;;5.10;99.90;;;;;;5074313;28;20193;-73
2022/11/29 08:44:13;;;;;;;43.90;27.13;;;5.20;99.90;;;;;;5074195;28;20220;-73
2022/11/29 08:49:24;;;;;;;49.20;28.50;;;5.20;99.90;;;;;;5073888;28;20667;-73
2022/11/29 08:51:52;;;;;;;43.13;26.43;;;5.30;99.90;;;;;;5074156;28;20247;-73
2022/11/29 08:54:17;;;;;;;45.57;26.67;;;5.30;99.90;;;;;;5073965;28;20283;-73
2022/11/29 08:56:44;;;;;;;46.17;27.33;;;5.30;99.90;;;;;;5073942;28;20628;-73
2022/11/29 08:59:11;;;;;;;40.87;25.53;;;5.40;99.90;;;;;;5073823;28;20228;-73
2022/11/29 09:01:39;;;;;;;44.17;26.67;;;5.40;99.90;;;;;;5073531;28;20197;-73
2022/11/29 09:04:09;;;;;;;43.77;25.70;;;5.50;99.90;;;;;;5073599;28;20274;-73
2022/11/29 09:06:38;;;;;;;43.27;26.40;;;5.50;99.90;;;;;;5073638;28;20224;-73
2022/11/29 09:09:06;;;;;;;44.80;25.70;;;5.60;99.90;;;;;;5073751;28;20227;-72
2022/11/29 09:11:34;;;;;;;41.57;25.93;;;5.60;99.90;;;;;;5073599;28;20251;-72
2022/11/29 09:14:02;;;;;;;37.07;24.33;;;5.70;99.90;;;;;;5073465;28;20196;-73
2022/11/29 09:16:32;;;;;;;41.17;24.87;;;5.80;99.90;;;;;;5073482;28;20247;-73
2022/11/29 09:19:00;;;;;;;37.50;24.40;;;5.80;99.90;;;;;;5073344;28;20688;-73
2022/11/29 09:21:29;;;;;;;39.23;25.00;;;5.80;99.90;;;;;;5073529;28;20599;-73
2022/11/29 09:23:58;;;;;;;38.33;23.77;;;5.90;99.90;;;;;;5073610;28;20197;-73
2022/11/29 09:26:28;;;;;;;37.03;23.37;;;5.90;99.90;;;;;;5073385;28;20276;-73
2022/11/29 09:28:54;;;;;;;33.30;23.37;;;6.00;99.90;;;;;;5073240;28;20197;-73
2022/11/29 09:31:21;;;;;;;34.40;22.47;;;6.00;99.90;;;;;;5073456;28;20280;-73
2022/11/29 09:33:48;;;;;;;34.73;23.07;;;6.00;99.90;;;;;;5073404;28;20197;-73
2022/11/29 09:36:16;;;;;;;37.00;24.57;;;6.10;99.90;;;;;;5073225;28;20203;-73
2022/11/29 09:38:43;;;;;;;41.80;25.37;;;6.20;99.90;;;;;;5073096;28;20285;-73
2022/11/29 09:41:27;;;;;;;43.63;24.20;;;6.10;99.90;;;;;;5073066;28;20247;-73
2022/11/29 09:44:02;;;;;;;34.63;23.50;;;6.00;99.90;;;;;;5073155;28;20247;-73
2022/11/29 09:46:38;;;;;;;36.87;24.93;;;6.00;99.90;;;;;;5072839;28;20196;-73
2022/11/29 09:49:19;;;;;;;35.73;22.20;;;6.00;99.90;;;;;;5073012;28;20276;-73
2022/11/29 09:51:55;;;;;;;35.70;21.80;;;6.10;99.90;;;;;;5072866;28;20197;-74
2022/11/29 09:54:30;;;;;;;35.00;22.47;;;6.10;99.90;;;;;;5073042;28;20196;-73
2022/11/29 09:56:57;;;;;;;35.83;22.67;;;6.10;99.90;;;;;;5072765;28;20652;-73
2022/11/29 09:59:28;;;;;;;36.67;21.83;;;6.10;99.90;;;;;;5072816;28;20232;-73
2022/11/29 10:02:09;;;;;;;32.20;22.10;;;6.10;99.90;;;;;;5072775;28;20197;-73
2022/11/29 10:04:40;;;;;;;34.30;21.57;;;6.20;99.90;;;;;;5072858;28;20195;-72
2022/11/29 10:07:17;;;;;;;35.00;21.90;;;6.20;99.90;;;;;;5072597;28;20233;-72
2022/11/29 10:09:47;;;;;;;35.17;21.30;;;6.10;99.90;;;;;;5072771;28;20210;-72
2022/11/29 10:12:18;;;;;;;40.70;24.00;;;6.20;99.90;;;;;;5072840;28;20195;-73
2022/11/29 10:14:51;;;;;;;29.47;21.37;;;6.20;99.90;;;;;;5072654;28;20279;-73
2022/11/29 10:17:28;;;;;;;33.00;22.40;;;6.20;99.90;;;;;;5072798;28;20216;-73
2022/11/29 10:19:59;;;;;;;33.00;21.90;;;6.20;99.90;;;;;;5072640;28;20199;-73
2022/11/29 10:22:39;;;;;;;33.87;21.57;;;6.30;99.90;;;;;;5072510;28;20615;-73
2022/11/29 10:25:10;;;;;;;31.13;21.07;;;6.40;99.90;;;;;;5072590;28;20561;-73
2022/11/29 10:27:39;;;;;;;29.23;20.10;;;6.40;99.90;;;;;;5072726;28;20288;-73
2022/11/29 10:30:13;;;;;;;31.93;21.00;;;6.40;99.90;;;;;;5072620;28;20250;-73
2022/11/29 10:32:40;;;;;;;35.47;21.30;;;6.40;99.90;;;;;;5072663;28;20196;-73
2022/11/29 10:35:13;;;;;;;31.67;19.60;;;6.50;99.90;;;;;;5072532;28;20201;-73
2022/11/29 10:37:41;;;;;;;32.17;20.20;;;6.50;99.90;;;;;;5072275;28;20714;-73
2022/11/29 10:40:14;;;;;;;30.60;20.20;;;6.50;99.90;;;;;;5072663;28;20197;-72
2022/11/29 10:42:52;;;;;;;34.03;22.53;;;6.50;99.90;;;;;;5072556;28;20261;-73
2022/11/29 10:45:26;;;;;;;35.13;21.40;;;6.50;99.90;;;;;;5072493;28;20201;-72
2022/11/29 10:47:56;;;;;;;33.13;21.17;;;6.50;99.90;;;;;;5072399;28;20612;-73
2022/11/29 10:50:25;;;;;;;30.17;20.37;;;6.50;99.90;;;;;;5072244;28;20198;-72
2022/11/29 10:52:53;;;;;;;33.07;20.60;;;6.50;99.90;;;;;;5072507;28;20196;-73
2022/11/29 10:55:22;;;;;;;29.07;19.27;;;6.50;99.90;;;;;;5072425;28;20246;-72
2022/11/29 10:58:08;;;;;;;34.77;21.93;;;6.50;99.90;;;;;;5074549;28;20298;-73
2022/11/29 11:00:44;;;;;;;32.70;21.60;;;6.50;99.90;;;;;;5075986;28;20615;-73
2022/11/29 11:03:18;;;;;;;31.97;20.70;;;6.50;99.90;;;;;;5076453;28;20200;-73
2022/11/29 11:05:58;;;;;;;34.07;22.17;;;6.50;99.90;;;;;;5076174;28;20568;-73
2022/11/29 11:08:27;;;;;;;36.73;22.20;;;6.50;99.90;;;;;;5075870;28;20598;-72
2022/11/29 11:10:55;;;;;;;36.17;23.47;;;6.30;99.90;;;;;;5075853;28;20243;-74
2022/11/29 11:13:23;;;;;;;34.53;22.77;;;6.30;99.90;;;;;;5075872;28;20204;-72
2022/11/29 11:15:56;;;;;;;33.00;22.50;;;6.20;99.90;;;;;;5075930;28;20212;-71
2022/11/29 11:18:27;;;;;;;37.77;23.97;;;6.30;99.90;;;;;;5075769;28;20270;-73
2022/11/29 11:20:57;;;;;;;31.37;20.57;;;6.40;99.90;;;;;;5075648;28;20579;-72
2022/11/29 11:23:27;;;;;;;35.97;22.70;;;6.40;99.90;;;;;;5075507;28;20197;-72
2022/11/29 11:25:58;;;;;;;36.67;22.43;;;6.40;99.90;;;;;;5075752;28;20224;-72
2022/11/29 11:28:28;;;;;;;34.83;23.00;;;6.40;99.90;;;;;;5075472;28;20247;-72
2022/11/29 11:30:58;;;;;;;37.53;23.50;;;6.40;99.90;;;;;;5075382;28;20200;-72
2022/11/29 11:33:27;;;;;;;34.43;22.50;;;6.40;99.90;;;;;;5075504;28;20201;-72
2022/11/29 11:36:07;;;;;;;33.53;21.23;;;6.40;99.90;;;;;;5075368;28;20252;-72
2022/11/29 11:38:37;;;;;;;36.07;21.47;;;6.40;99.90;;;;;;5075490;28;20225;-72
2022/11/29 11:41:12;;;;;;;31.67;20.37;;;6.30;99.90;;;;;;5075400;28;20204;-72
2022/11/29 11:43:39;;;;;;;32.87;20.60;;;6.30;99.90;;;;;;5075321;28;20256;-72
2022/11/29 11:46:06;;;;;;;33.63;20.63;;;6.30;99.90;;;;;;5075185;28;20201;-71
2022/11/29 11:48:33;;;;;;;32.67;20.57;;;6.30;99.90;;;;;;5074998;28;20200;-72
2022/11/29 11:51:01;;;;;;;29.83;20.20;;;6.30;99.90;;;;;;5075191;28;20205;-72
2022/11/29 11:53:32;;;;;;;34.90;22.30;;;6.40;99.90;;;;;;5075177;28;20193;-73
2022/11/29 11:56:02;;;;;;;33.67;20.30;;;6.30;99.90;;;;;;5075143;28;20652;-72
2022/11/29 11:58:31;;;;;;;33.97;20.60;;;6.40;99.90;;;;;;5074889;28;20270;-72
2022/11/29 12:01:00;;;;;;;30.03;19.53;;;6.40;99.90;;;;;;5074922;28;20251;-72
2022/11/29 12:03:34;;;;;;;33.73;20.00;;;6.40;99.90;;;;;;5075061;28;20201;-72
2022/11/29 12:06:17;;;;;;;29.97;20.20;;;6.30;99.90;;;;;;5074644;28;20202;-72
2022/11/29 12:08:45;;;;;;;31.87;20.10;;;6.30;99.90;;;;;;5074403;28;20232;-72
2022/11/29 12:11:16;;;;;;;32.27;20.17;;;6.30;99.90;;;;;;5074733;28;20749;-72
2022/11/29 12:13:48;;;;;;;31.20;19.93;;;6.20;99.90;;;;;;5074801;28;20213;-72
2022/11/29 12:16:26;;;;;;;30.27;18.63;;;6.10;99.90;;;;;;5074889;28;20201;-72
2022/11/29 12:18:59;;;;;;;28.23;18.73;;;6.00;99.90;;;;;;5074859;28;20228;-72
2022/11/29 12:21:29;;;;;;;30.27;18.27;;;6.00;99.90;;;;;;5074686;28;20246;-72
2022/11/29 12:24:02;;;;;;;28.23;19.30;;;5.90;99.90;;;;;;5074329;28;20651;-72
2022/11/29 12:26:33;;;;;;;29.97;19.10;;;5.90;99.90;;;;;;5074555;28;20197;-72
2022/11/29 12:29:00;;;;;;;30.63;18.43;;;5.90;99.90;;;;;;5074617;28;20201;-72
2022/11/29 12:31:41;;;;;;;30.10;19.30;;;5.90;99.90;;;;;;5074520;28;20224;-74
2022/11/29 12:34:22;;;;;;;29.83;19.33;;;5.80;99.90;;;;;;5074469;28;20200;-72
2022/11/29 12:36:54;;;;;;;31.13;18.77;;;5.90;99.90;;;;;;5074486;28;20200;-72
2022/11/29 12:39:49;;;;;;;30.13;18.37;;;6.00;99.90;;;;;;5074317;28;20235;-72
2022/11/29 12:42:31;;;;;;;31.27;18.80;;;6.00;99.90;;;;;;5073971;28;20655;-72
2022/11/29 12:45:04;;;;;;;25.07;17.03;;;6.00;99.90;;;;;;5074103;28;20200;-72
2022/11/29 12:47:44;;;;;;;29.57;18.07;;;6.00;99.90;;;;;;5074117;28;20197;-72
2022/11/29 12:50:20;;;;;;;28.70;18.47;;;5.90;99.90;;;;;;5074195;28;20192;-72
2022/11/29 12:52:55;;;;;;;32.23;17.80;;;5.90;99.90;;;;;;5074019;28;20197;-72
2022/11/29 12:55:25;;;;;;;27.50;17.13;;;6.00;99.90;;;;;;5073881;28;20193;-72
2022/11/29 12:58:01;;;;;;;26.83;17.13;;;6.00;99.90;;;;;;5074000;28;20211;-72
2022/11/29 13:00:34;;;;;;;24.70;16.20;;;6.00;99.90;;;;;;5073885;28;20622;-71
2022/11/29 13:03:12;;;;;;;24.83;15.67;;;6.00;99.90;;;;;;5073899;28;20197;-72
2022/11/29 13:05:55;;;;;;;23.40;15.30;;;6.00;99.90;;;;;;5073729;28;20200;-72
2022/11/29 13:08:49;;;;;;;23.47;16.03;;;6.00;99.90;;;;;;5073942;28;20269;-72
2022/11/29 13:11:21;;;;;;;24.93;16.27;;;6.00;99.90;;;;;;5057840;28;20223;-72
2022/11/29 13:13:54;;;;;;;25.07;16.07;;;5.90;99.90;;;;;;5073570;28;20250;-72
2022/11/29 13:16:34;;;;;;;25.83;16.47;;;5.90;99.90;;;;;;5073873;28;20201;-71